Loma, Montana
Current Conditions -  °F | °C
As of 10:56 AM on Thursday 23 Oct 2014 (Local Time) from KGFA Reporting Station
Broken Clouds Broken Clouds  
Wind Chill: 57°   Ceiling: 13000
Heat Index: 57°   Visibility: 10mi
Dew Point: 37°   Wind: 15mph
Humidity: 47%   Direction: 220°SW
Pressure: 29.85"   Gusts: 22mph
Location:  47.93°N, 110.49°W
Report Text: KGFA 231656Z AUTO 22013G19KT 10SM BKN130 14/03 A2985 RMK AO2 SLP114 T01400028
Loading
Personal Weather Stations






























Interactive Weather Map
Tropical Storm Tracking
New forecast layout! Learn more

10-Day Weather Forecast

Advertisements
Track Severe Weather on mobile